Pulau Tioman — 3EYO9 — position and weather

sailwx.info

Track history (hours):
 
Tides and Currents Weather Stations Pressure Air Temp Water Temp Dewpoint Dewpoint Depression Visibility Wind Speed Wind Dir Waves Ship Positions

Pulau Tioman

Last reported at 2014-Oct-31 08:32 UTC. Time now 2014-Oct-31 12:15 UTC.
Position N 35°09' E 139°44'.

Length 120 m; draft 5.9 m.

Type: Cargo ship. MMSI: 356613000.

Date/timePositionNaut miles runAvg speedWind from/ knotsBaromVisibWave heightAir tempDewpointWater temp
2014-Oct-31 08:32N 35°09' E 139°44'1211.9
2014-Oct-31 07:34N 35°21' E 139°42'8 7.5
2014-Oct-31 06:33N 35°28' E 139°41'0 0.0
2014-Oct-31 05:33N 35°28' E 139°41'0 0.0
2014-Oct-31 04:33N 35°28' E 139°41'0 0.0
2014-Oct-31 03:33N 35°28' E 139°41'0 0.0
2014-Oct-31 02:33N 35°28' E 139°41'0 0.0
2014-Oct-31 01:33N 35°28' E 139°41'0 0.0
2014-Oct-31 00:33N 35°28' E 139°41'0 0.0
2014-Oct-30 23:33N 35°28' E 139°41'0 0.2
2014-Oct-30 22:33N 35°28' E 139°41'3 3.1
2014-Oct-30 21:33N 35°27' E 139°44'9 9.1
2014-Oct-30 20:33N 35°17' E 139°45'1211.5
2014-Oct-30 19:33N 35°06' E 139°45'  
2014-Oct-28 07:16N 33°55' E 134°58'1115.0
2014-Oct-28 06:33N 34°06' E 134°58'1514.6
2014-Oct-28 05:34N 34°21' E 134°60'1514.7
2014-Oct-28 04:33N 34°31' E 135°12'1010.4
2014-Oct-28 03:33N 34°41' E 135°15'0 0.1
2014-Oct-28 02:22N 34°41' E 135°15'0 0.0
2014-Oct-28 01:29N 34°41' E 135°15'0 0.0
2014-Oct-28 00:16N 34°41' E 135°15'0 0.0
2014-Oct-27 23:29N 34°41' E 135°15'0 0.0
2014-Oct-27 22:28N 34°41' E 135°15'0 0.0
2014-Oct-27 21:28N 34°41' E 135°15'0 0.0
2014-Oct-27 20:28N 34°41' E 135°15'0 0.0
2014-Oct-27 19:28N 34°41' E 135°15'0 0.0
2014-Oct-27 18:28N 34°41' E 135°15'0 0.0
2014-Oct-27 17:29N 34°41' E 135°15'0 0.0
2014-Oct-27 16:29N 34°41' E 135°15'0 0.0
2014-Oct-27 15:22N 34°41' E 135°15'0 0.0
2014-Oct-27 14:28N 34°41' E 135°15'0 0.0
2014-Oct-27 13:28N 34°41' E 135°15'0 0.0
2014-Oct-27 12:22N 34°41' E 135°15'0 0.0
2014-Oct-27 11:28N 34°41' E 135°15'0 0.0
2014-Oct-27 10:04N 34°41' E 135°15'0 0.0
2014-Oct-27 08:28N 34°41' E 135°15'0 0.0
2014-Oct-27 07:28N 34°41' E 135°15'0 0.0
2014-Oct-27 06:33N 34°41' E 135°15'4 3.9
2014-Oct-27 05:33N 34°37' E 135°16'1212.4
2014-Oct-27 04:33N 34°37' E 135°01'  
Track history (hours):
 
Tides and Currents Weather Stations Pressure Air Temp Water Temp Dewpoint Dewpoint Depression Visibility Wind Speed Wind Dir Waves Ship Positions

Pulau Tioman

Last reported at 2014-Oct-31 08:32 UTC. Time now 2014-Oct-31 12:15 UTC.
Position N 35°09' E 139°44'.

Length 120 m; draft 5.9 m.

Type: Cargo ship. MMSI: 356613000.

Date/timePositionNaut miles runAvg speedWind from/ knotsBaromVisibWave heightAir tempDewpointWater temp
2014-Oct-31 08:32N 35°09' E 139°44'1211.9
2014-Oct-31 07:34N 35°21' E 139°42'8 7.5
2014-Oct-31 06:33N 35°28' E 139°41'0 0.0
2014-Oct-31 05:33N 35°28' E 139°41'0 0.0
2014-Oct-31 04:33N 35°28' E 139°41'0 0.0
2014-Oct-31 03:33N 35°28' E 139°41'0 0.0
2014-Oct-31 02:33N 35°28' E 139°41'0 0.0
2014-Oct-31 01:33N 35°28' E 139°41'0 0.0
2014-Oct-31 00:33N 35°28' E 139°41'0 0.0
2014-Oct-30 23:33N 35°28' E 139°41'0 0.2
2014-Oct-30 22:33N 35°28' E 139°41'3 3.1
2014-Oct-30 21:33N 35°27' E 139°44'9 9.1
2014-Oct-30 20:33N 35°17' E 139°45'1211.5
2014-Oct-30 19:33N 35°06' E 139°45'  
2014-Oct-28 07:16N 33°55' E 134°58'1115.0
2014-Oct-28 06:33N 34°06' E 134°58'1514.6
2014-Oct-28 05:34N 34°21' E 134°60'1514.7
2014-Oct-28 04:33N 34°31' E 135°12'1010.4
2014-Oct-28 03:33N 34°41' E 135°15'0 0.1
2014-Oct-28 02:22N 34°41' E 135°15'0 0.0
2014-Oct-28 01:29N 34°41' E 135°15'0 0.0
2014-Oct-28 00:16N 34°41' E 135°15'0 0.0
2014-Oct-27 23:29N 34°41' E 135°15'0 0.0
2014-Oct-27 22:28N 34°41' E 135°15'0 0.0
2014-Oct-27 21:28N 34°41' E 135°15'0 0.0
2014-Oct-27 20:28N 34°41' E 135°15'0 0.0
2014-Oct-27 19:28N 34°41' E 135°15'0 0.0
2014-Oct-27 18:28N 34°41' E 135°15'0 0.0
2014-Oct-27 17:29N 34°41' E 135°15'0 0.0
2014-Oct-27 16:29N 34°41' E 135°15'0 0.0
2014-Oct-27 15:22N 34°41' E 135°15'0 0.0
2014-Oct-27 14:28N 34°41' E 135°15'0 0.0
2014-Oct-27 13:28N 34°41' E 135°15'0 0.0
2014-Oct-27 12:22N 34°41' E 135°15'0 0.0
2014-Oct-27 11:28N 34°41' E 135°15'0 0.0
2014-Oct-27 10:04N 34°41' E 135°15'0 0.0
2014-Oct-27 08:28N 34°41' E 135°15'0 0.0
2014-Oct-27 07:28N 34°41' E 135°15'0 0.0
2014-Oct-27 06:33N 34°41' E 135°15'4 3.9
2014-Oct-27 05:33N 34°37' E 135°16'1212.4
2014-Oct-27 04:33N 34°37' E 135°01'  

Dump ship's entire track history